sensor_id;sensor_type;location;lat;lon;timestamp;temperature;humidity
60287;DHT22;46141;52.382;5.270;2022-08-03T00:01:59;26.60;68.10
60287;DHT22;46141;52.382;5.270;2022-08-03T00:04:24;26.60;68.10
60287;DHT22;46141;52.382;5.270;2022-08-03T00:06:50;26.60;68.10
60287;DHT22;46141;52.382;5.270;2022-08-03T00:09:15;26.60;68.10
60287;DHT22;46141;52.382;5.270;2022-08-03T00:11:41;26.70;68.10
60287;DHT22;46141;52.382;5.270;2022-08-03T00:14:07;26.60;68.10
60287;DHT22;46141;52.382;5.270;2022-08-03T00:16:33;26.60;68.20
60287;DHT22;46141;52.382;5.270;2022-08-03T00:19:00;26.60;68.10
60287;DHT22;46141;52.382;5.270;2022-08-03T00:21:25;26.60;68.10
60287;DHT22;46141;52.382;5.270;2022-08-03T00:23:51;26.60;68.20
60287;DHT22;46141;52.382;5.270;2022-08-03T00:26:17;26.60;68.30
60287;DHT22;46141;52.382;5.270;2022-08-03T00:28:42;26.60;68.30
60287;DHT22;46141;52.382;5.270;2022-08-03T00:31:08;26.60;68.30
60287;DHT22;46141;52.382;5.270;2022-08-03T00:33:34;26.50;68.30
60287;DHT22;46141;52.382;5.270;2022-08-03T00:35:59;26.60;68.40
60287;DHT22;46141;52.382;5.270;2022-08-03T00:38:25;26.60;68.40
60287;DHT22;46141;52.382;5.270;2022-08-03T00:40:50;26.60;68.40
60287;DHT22;46141;52.382;5.270;2022-08-03T00:43:16;26.60;68.30
60287;DHT22;46141;52.382;5.270;2022-08-03T00:45:42;26.60;68.30
60287;DHT22;46141;52.382;5.270;2022-08-03T00:48:11;26.50;68.30
60287;DHT22;46141;52.382;5.270;2022-08-03T00:50:41;26.60;68.30
60287;DHT22;46141;52.382;5.270;2022-08-03T00:53:10;26.50;68.30
60287;DHT22;46141;52.382;5.270;2022-08-03T00:55:36;26.50;68.30
60287;DHT22;46141;52.382;5.270;2022-08-03T00:58:03;26.50;68.60
60287;DHT22;46141;52.382;5.270;2022-08-03T01:00:29;26.50;68.30
60287;DHT22;46141;52.382;5.270;2022-08-03T01:02:55;26.50;68.30
60287;DHT22;46141;52.382;5.270;2022-08-03T01:05:20;26.50;68.60
60287;DHT22;46141;52.382;5.270;2022-08-03T01:10:51;26.50;68.50
60287;DHT22;46141;52.382;5.270;2022-08-03T01:13:28;26.50;68.50
60287;DHT22;46141;52.382;5.270;2022-08-03T01:16:26;26.40;68.40
60287;DHT22;46141;52.382;5.270;2022-08-03T01:21:48;26.30;68.50
60287;DHT22;46141;52.382;5.270;2022-08-03T01:27:28;26.40;68.70
60287;DHT22;46141;52.382;5.270;2022-08-03T01:32:27;26.40;68.60
60287;DHT22;46141;52.382;5.270;2022-08-03T01:35:03;26.40;68.50
60287;DHT22;46141;52.382;5.270;2022-08-03T01:37:54;26.40;68.50
60287;DHT22;46141;52.382;5.270;2022-08-03T01:40:24;26.40;68.50
60287;DHT22;46141;52.382;5.270;2022-08-03T01:42:53;26.40;68.50
60287;DHT22;46141;52.382;5.270;2022-08-03T01:45:21;26.40;68.50
60287;DHT22;46141;52.382;5.270;2022-08-03T01:47:49;26.30;68.60
60287;DHT22;46141;52.382;5.270;2022-08-03T01:50:21;26.30;68.70
60287;DHT22;46141;52.382;5.270;2022-08-03T01:52:49;26.30;69.30
60287;DHT22;46141;52.382;5.270;2022-08-03T01:55:18;26.30;68.80
60287;DHT22;46141;52.382;5.270;2022-08-03T01:57:47;26.30;68.80
60287;DHT22;46141;52.382;5.270;2022-08-03T02:00:14;26.30;69.40
60287;DHT22;46141;52.382;5.270;2022-08-03T02:02:42;26.20;68.80
60287;DHT22;46141;52.382;5.270;2022-08-03T02:05:11;26.20;68.80
60287;DHT22;46141;52.382;5.270;2022-08-03T02:07:39;26.30;68.80
60287;DHT22;46141;52.382;5.270;2022-08-03T02:10:06;26.20;68.70
60287;DHT22;46141;52.382;5.270;2022-08-03T02:12:34;26.20;68.80
60287;DHT22;46141;52.382;5.270;2022-08-03T02:15:01;26.20;68.90
60287;DHT22;46141;52.382;5.270;2022-08-03T02:17:29;26.20;68.90
60287;DHT22;46141;52.382;5.270;2022-08-03T02:19:58;26.20;68.90
60287;DHT22;46141;52.382;5.270;2022-08-03T02:22:24;26.20;69.00
60287;DHT22;46141;52.382;5.270;2022-08-03T02:24:51;26.20;69.00
60287;DHT22;46141;52.382;5.270;2022-08-03T02:27:23;26.20;69.00
60287;DHT22;46141;52.382;5.270;2022-08-03T02:29:54;26.10;69.00
60287;DHT22;46141;52.382;5.270;2022-08-03T02:32:30;26.20;69.10
60287;DHT22;46141;52.382;5.270;2022-08-03T02:34:59;26.10;69.20
60287;DHT22;46141;52.382;5.270;2022-08-03T02:37:30;26.10;69.10
60287;DHT22;46141;52.382;5.270;2022-08-03T02:40:01;26.20;69.10
60287;DHT22;46141;52.382;5.270;2022-08-03T02:42:31;26.10;69.10
60287;DHT22;46141;52.382;5.270;2022-08-03T02:45:01;26.10;69.00
60287;DHT22;46141;52.382;5.270;2022-08-03T02:47:29;26.10;69.10
60287;DHT22;46141;52.382;5.270;2022-08-03T02:49:57;26.10;69.10
60287;DHT22;46141;52.382;5.270;2022-08-03T02:52:27;26.10;69.10
60287;DHT22;46141;52.382;5.270;2022-08-03T02:54:56;26.00;69.10
60287;DHT22;46141;52.382;5.270;2022-08-03T02:57:26;26.00;69.10
60287;DHT22;46141;52.382;5.270;2022-08-03T02:59:54;26.10;69.30
60287;DHT22;46141;52.382;5.270;2022-08-03T03:02:21;26.00;69.10
60287;DHT22;46141;52.382;5.270;2022-08-03T03:04:51;26.00;69.10
60287;DHT22;46141;52.382;5.270;2022-08-03T03:07:17;26.00;69.10
60287;DHT22;46141;52.382;5.270;2022-08-03T03:09:45;26.00;69.30
60287;DHT22;46141;52.382;5.270;2022-08-03T03:12:12;26.00;69.40
60287;DHT22;46141;52.382;5.270;2022-08-03T03:14:38;25.90;69.40
60287;DHT22;46141;52.382;5.270;2022-08-03T03:17:06;25.90;69.50
60287;DHT22;46141;52.382;5.270;2022-08-03T03:19:33;25.90;69.50
60287;DHT22;46141;52.382;5.270;2022-08-03T03:22:04;25.90;69.60
60287;DHT22;46141;52.382;5.270;2022-08-03T03:24:32;25.90;69.60
60287;DHT22;46141;52.382;5.270;2022-08-03T03:26:59;25.80;69.60
60287;DHT22;46141;52.382;5.270;2022-08-03T03:29:25;25.80;69.70
60287;DHT22;46141;52.382;5.270;2022-08-03T03:31:52;25.80;69.70
60287;DHT22;46141;52.382;5.270;2022-08-03T03:34:18;25.80;69.70
60287;DHT22;46141;52.382;5.270;2022-08-03T03:36:44;25.80;69.70
60287;DHT22;46141;52.382;5.270;2022-08-03T03:39:09;25.80;69.80
60287;DHT22;46141;52.382;5.270;2022-08-03T03:41:36;25.80;70.20
60287;DHT22;46141;52.382;5.270;2022-08-03T03:44:02;25.80;69.70
60287;DHT22;46141;52.382;5.270;2022-08-03T03:46:28;25.80;69.70
60287;DHT22;46141;52.382;5.270;2022-08-03T03:48:53;25.80;69.80
60287;DHT22;46141;52.382;5.270;2022-08-03T03:51:19;25.80;69.90
60287;DHT22;46141;52.382;5.270;2022-08-03T03:53:59;25.80;69.90
60287;DHT22;46141;52.382;5.270;2022-08-03T03:56:26;25.80;69.90
60287;DHT22;46141;52.382;5.270;2022-08-03T03:58:52;25.80;69.80
60287;DHT22;46141;52.382;5.270;2022-08-03T04:01:18;25.80;69.90
60287;DHT22;46141;52.382;5.270;2022-08-03T04:03:44;25.70;69.90
60287;DHT22;46141;52.382;5.270;2022-08-03T04:06:10;25.70;69.90
60287;DHT22;46141;52.382;5.270;2022-08-03T04:08:36;25.70;69.90
60287;DHT22;46141;52.382;5.270;2022-08-03T04:13:50;25.60;69.90
60287;DHT22;46141;52.382;5.270;2022-08-03T04:16:20;25.70;70.00
60287;DHT22;46141;52.382;5.270;2022-08-03T04:18:51;25.70;70.00
60287;DHT22;46141;52.382;5.270;2022-08-03T04:21:20;25.60;69.90
60287;DHT22;46141;52.382;5.270;2022-08-03T04:23:50;25.60;70.00
60287;DHT22;46141;52.382;5.270;2022-08-03T04:26:20;25.60;70.00
60287;DHT22;46141;52.382;5.270;2022-08-03T04:28:47;25.60;70.00
60287;DHT22;46141;52.382;5.270;2022-08-03T04:31:16;25.60;70.00
60287;DHT22;46141;52.382;5.270;2022-08-03T04:33:43;25.60;70.00
60287;DHT22;46141;52.382;5.270;2022-08-03T04:36:15;25.60;69.90
60287;DHT22;46141;52.382;5.270;2022-08-03T04:39:05;25.50;70.00
60287;DHT22;46141;52.382;5.270;2022-08-03T04:41:34;25.50;70.20
60287;DHT22;46141;52.382;5.270;2022-08-03T04:44:01;25.50;70.10
60287;DHT22;46141;52.382;5.270;2022-08-03T04:46:31;25.50;70.10
60287;DHT22;46141;52.382;5.270;2022-08-03T04:49:00;25.50;70.10
60287;DHT22;46141;52.382;5.270;2022-08-03T04:51:26;25.50;70.20
60287;DHT22;46141;52.382;5.270;2022-08-03T04:53:51;25.50;70.20
60287;DHT22;46141;52.382;5.270;2022-08-03T04:56:17;25.50;70.10
60287;DHT22;46141;52.382;5.270;2022-08-03T04:58:43;25.50;70.10
60287;DHT22;46141;52.382;5.270;2022-08-03T05:01:09;25.50;70.10
60287;DHT22;46141;52.382;5.270;2022-08-03T05:03:34;25.50;70.10
60287;DHT22;46141;52.382;5.270;2022-08-03T05:06:00;25.50;70.10
60287;DHT22;46141;52.382;5.270;2022-08-03T05:08:25;25.50;70.10
60287;DHT22;46141;52.382;5.270;2022-08-03T05:10:51;25.50;70.70
60287;DHT22;46141;52.382;5.270;2022-08-03T05:13:17;25.50;70.10
60287;DHT22;46141;52.382;5.270;2022-08-03T05:15:42;25.40;70.10
60287;DHT22;46141;52.382;5.270;2022-08-03T05:18:08;25.50;70.20
60287;DHT22;46141;52.382;5.270;2022-08-03T05:20:33;25.50;70.20
60287;DHT22;46141;52.382;5.270;2022-08-03T05:22:59;25.40;70.30
60287;DHT22;46141;52.382;5.270;2022-08-03T05:25:24;25.40;70.30
60287;DHT22;46141;52.382;5.270;2022-08-03T05:27:50;25.40;70.40
60287;DHT22;46141;52.382;5.270;2022-08-03T05:30:15;25.40;70.50
60287;DHT22;46141;52.382;5.270;2022-08-03T05:32:41;25.40;70.50
60287;DHT22;46141;52.382;5.270;2022-08-03T05:35:07;25.40;70.50
60287;DHT22;46141;52.382;5.270;2022-08-03T05:37:32;25.40;70.50
60287;DHT22;46141;52.382;5.270;2022-08-03T05:39:58;25.40;70.60
60287;DHT22;46141;52.382;5.270;2022-08-03T05:42:23;25.40;70.50
60287;DHT22;46141;52.382;5.270;2022-08-03T05:44:49;25.40;70.50
60287;DHT22;46141;52.382;5.270;2022-08-03T05:47:15;25.40;70.60
60287;DHT22;46141;52.382;5.270;2022-08-03T05:49:40;25.40;70.60
60287;DHT22;46141;52.382;5.270;2022-08-03T05:52:06;25.40;70.60
60287;DHT22;46141;52.382;5.270;2022-08-03T05:54:31;25.50;70.10
60287;DHT22;46141;52.382;5.270;2022-08-03T05:56:57;25.50;70.30
60287;DHT22;46141;52.382;5.270;2022-08-03T05:59:23;25.50;70.20
60287;DHT22;46141;52.382;5.270;2022-08-03T06:01:48;25.50;70.40
60287;DHT22;46141;52.382;5.270;2022-08-03T06:04:14;25.50;71.20
60287;DHT22;46141;52.382;5.270;2022-08-03T06:06:39;25.50;71.60
60287;DHT22;46141;52.382;5.270;2022-08-03T06:09:05;25.40;73.60
60287;DHT22;46141;52.382;5.270;2022-08-03T06:11:30;25.20;74.60
60287;DHT22;46141;52.382;5.270;2022-08-03T06:13:56;25.10;75.50
60287;DHT22;46141;52.382;5.270;2022-08-03T06:16:21;25.00;76.60
60287;DHT22;46141;52.382;5.270;2022-08-03T06:18:47;25.00;77.70
60287;DHT22;46141;52.382;5.270;2022-08-03T06:21:12;24.90;77.60
60287;DHT22;46141;52.382;5.270;2022-08-03T06:23:38;24.90;77.70
60287;DHT22;46141;52.382;5.270;2022-08-03T06:26:03;24.80;78.10
60287;DHT22;46141;52.382;5.270;2022-08-03T06:28:29;24.70;78.20
60287;DHT22;46141;52.382;5.270;2022-08-03T06:30:55;24.80;78.30
60287;DHT22;46141;52.382;5.270;2022-08-03T06:33:20;24.80;78.70
60287;DHT22;46141;52.382;5.270;2022-08-03T06:35:46;24.70;78.90
60287;DHT22;46141;52.382;5.270;2022-08-03T06:38:11;24.70;79.20
60287;DHT22;46141;52.382;5.270;2022-08-03T06:40:37;24.60;79.20
60287;DHT22;46141;52.382;5.270;2022-08-03T06:43:02;24.60;79.30
60287;DHT22;46141;52.382;5.270;2022-08-03T06:45:28;24.60;79.30
60287;DHT22;46141;52.382;5.270;2022-08-03T06:48:04;24.60;79.40
60287;DHT22;46141;52.382;5.270;2022-08-03T06:50:31;24.70;79.40
60287;DHT22;46141;52.382;5.270;2022-08-03T06:52:57;24.60;79.90
60287;DHT22;46141;52.382;5.270;2022-08-03T06:55:23;24.60;80.00
60287;DHT22;46141;52.382;5.270;2022-08-03T06:57:49;24.60;80.30
60287;DHT22;46141;52.382;5.270;2022-08-03T07:00:15;24.50;80.40
60287;DHT22;46141;52.382;5.270;2022-08-03T07:02:40;24.50;80.20
60287;DHT22;46141;52.382;5.270;2022-08-03T07:05:07;24.50;80.50
60287;DHT22;46141;52.382;5.270;2022-08-03T07:07:33;24.50;80.60
60287;DHT22;46141;52.382;5.270;2022-08-03T07:09:58;24.60;80.80
60287;DHT22;46141;52.382;5.270;2022-08-03T07:12:26;24.60;80.50
60287;DHT22;46141;52.382;5.270;2022-08-03T07:14:53;24.70;79.80
60287;DHT22;46141;52.382;5.270;2022-08-03T07:17:18;24.80;79.20
60287;DHT22;46141;52.382;5.270;2022-08-03T07:19:44;24.90;78.80
60287;DHT22;46141;52.382;5.270;2022-08-03T07:22:09;24.90;78.30
60287;DHT22;46141;52.382;5.270;2022-08-03T07:24:35;25.00;78.00
60287;DHT22;46141;52.382;5.270;2022-08-03T07:27:00;25.00;77.70
60287;DHT22;46141;52.382;5.270;2022-08-03T07:29:26;25.10;77.50
60287;DHT22;46141;52.382;5.270;2022-08-03T07:31:51;25.10;77.40
60287;DHT22;46141;52.382;5.270;2022-08-03T07:34:17;25.10;77.70
60287;DHT22;46141;52.382;5.270;2022-08-03T07:36:42;25.10;76.70
60287;DHT22;46141;52.382;5.270;2022-08-03T07:39:08;25.20;76.80
60287;DHT22;46141;52.382;5.270;2022-08-03T07:41:33;25.20;76.40
60287;DHT22;46141;52.382;5.270;2022-08-03T07:43:59;25.20;76.30
60287;DHT22;46141;52.382;5.270;2022-08-03T07:46:24;25.20;76.10
60287;DHT22;46141;52.382;5.270;2022-08-03T07:48:50;25.30;76.00
60287;DHT22;46141;52.382;5.270;2022-08-03T07:51:15;25.30;75.90
60287;DHT22;46141;52.382;5.270;2022-08-03T07:53:41;25.30;75.70
60287;DHT22;46141;52.382;5.270;2022-08-03T07:56:06;25.40;75.60
60287;DHT22;46141;52.382;5.270;2022-08-03T07:58:34;25.40;75.50
60287;DHT22;46141;52.382;5.270;2022-08-03T08:01:00;25.40;75.40
60287;DHT22;46141;52.382;5.270;2022-08-03T08:03:25;25.50;75.30
60287;DHT22;46141;52.382;5.270;2022-08-03T08:05:51;25.50;75.30
60287;DHT22;46141;52.382;5.270;2022-08-03T08:08:16;25.50;75.30
60287;DHT22;46141;52.382;5.270;2022-08-03T08:10:42;25.50;75.20
60287;DHT22;46141;52.382;5.270;2022-08-03T08:13:07;25.50;75.00
60287;DHT22;46141;52.382;5.270;2022-08-03T08:15:33;25.50;75.00
60287;DHT22;46141;52.382;5.270;2022-08-03T08:18:00;25.50;74.80
60287;DHT22;46141;52.382;5.270;2022-08-03T08:20:31;25.50;74.60
60287;DHT22;46141;52.382;5.270;2022-08-03T08:23:03;25.60;74.50
60287;DHT22;46141;52.382;5.270;2022-08-03T08:25:30;25.70;74.50
60287;DHT22;46141;52.382;5.270;2022-08-03T08:27:56;25.70;74.30
60287;DHT22;46141;52.382;5.270;2022-08-03T08:30:22;25.70;74.30
60287;DHT22;46141;52.382;5.270;2022-08-03T08:32:49;25.80;74.40
60287;DHT22;46141;52.382;5.270;2022-08-03T08:35:16;25.80;74.10
60287;DHT22;46141;52.382;5.270;2022-08-03T08:37:42;25.80;74.10
60287;DHT22;46141;52.382;5.270;2022-08-03T08:40:09;25.90;74.10
60287;DHT22;46141;52.382;5.270;2022-08-03T08:42:39;25.90;74.00
60287;DHT22;46141;52.382;5.270;2022-08-03T08:45:05;25.90;73.80
60287;DHT22;46141;52.382;5.270;2022-08-03T08:47:35;26.00;73.90
60287;DHT22;46141;52.382;5.270;2022-08-03T08:50:02;26.00;73.90
60287;DHT22;46141;52.382;5.270;2022-08-03T08:52:29;26.10;74.00
60287;DHT22;46141;52.382;5.270;2022-08-03T08:55:00;26.10;73.80
60287;DHT22;46141;52.382;5.270;2022-08-03T08:57:32;26.10;73.50
60287;DHT22;46141;52.382;5.270;2022-08-03T08:59:58;26.10;73.80
60287;DHT22;46141;52.382;5.270;2022-08-03T09:02:28;26.20;74.00
60287;DHT22;46141;52.382;5.270;2022-08-03T09:04:55;26.20;74.10
60287;DHT22;46141;52.382;5.270;2022-08-03T09:07:21;26.20;74.00
60287;DHT22;46141;52.382;5.270;2022-08-03T09:09:47;26.30;73.70
60287;DHT22;46141;52.382;5.270;2022-08-03T09:12:13;26.30;73.60
60287;DHT22;46141;52.382;5.270;2022-08-03T09:14:39;26.40;74.00
60287;DHT22;46141;52.382;5.270;2022-08-03T09:17:04;26.40;74.40
60287;DHT22;46141;52.382;5.270;2022-08-03T09:19:32;26.40;73.40
60287;DHT22;46141;52.382;5.270;2022-08-03T09:22:16;26.40;73.40
60287;DHT22;46141;52.382;5.270;2022-08-03T09:25:04;26.50;73.30
60287;DHT22;46141;52.382;5.270;2022-08-03T09:27:43;26.50;73.20
60287;DHT22;46141;52.382;5.270;2022-08-03T09:30:18;26.50;73.20
60287;DHT22;46141;52.382;5.270;2022-08-03T09:32:44;26.60;73.40
60287;DHT22;46141;52.382;5.270;2022-08-03T09:35:09;26.60;73.10
60287;DHT22;46141;52.382;5.270;2022-08-03T09:37:35;26.60;72.90
60287;DHT22;46141;52.382;5.270;2022-08-03T09:40:01;26.70;73.00
60287;DHT22;46141;52.382;5.270;2022-08-03T09:42:26;26.70;73.00
60287;DHT22;46141;52.382;5.270;2022-08-03T09:44:52;26.70;73.10
60287;DHT22;46141;52.382;5.270;2022-08-03T09:47:28;26.80;72.90
60287;DHT22;46141;52.382;5.270;2022-08-03T09:50:05;26.80;73.10
60287;DHT22;46141;52.382;5.270;2022-08-03T09:52:34;26.80;72.80
60287;DHT22;46141;52.382;5.270;2022-08-03T09:55:01;26.90;73.10
60287;DHT22;46141;52.382;5.270;2022-08-03T09:57:32;26.90;72.70
60287;DHT22;46141;52.382;5.270;2022-08-03T10:00:27;26.90;72.60
60287;DHT22;46141;52.382;5.270;2022-08-03T10:03:03;26.90;72.70
60287;DHT22;46141;52.382;5.270;2022-08-03T10:05:31;27.00;72.50
60287;DHT22;46141;52.382;5.270;2022-08-03T10:07:57;27.00;72.50
60287;DHT22;46141;52.382;5.270;2022-08-03T10:10:23;27.00;72.30
60287;DHT22;46141;52.382;5.270;2022-08-03T10:12:49;27.00;72.20
60287;DHT22;46141;52.382;5.270;2022-08-03T10:15:15;26.90;72.30
60287;DHT22;46141;52.382;5.270;2022-08-03T10:17:41;26.90;72.60
60287;DHT22;46141;52.382;5.270;2022-08-03T10:20:08;26.90;72.20
60287;DHT22;46141;52.382;5.270;2022-08-03T10:22:35;27.00;72.50
60287;DHT22;46141;52.382;5.270;2022-08-03T10:25:07;27.00;72.40
60287;DHT22;46141;52.382;5.270;2022-08-03T10:27:37;27.00;72.70
60287;DHT22;46141;52.382;5.270;2022-08-03T10:30:06;27.00;72.40
60287;DHT22;46141;52.382;5.270;2022-08-03T10:32:54;26.90;72.40
60287;DHT22;46141;52.382;5.270;2022-08-03T10:35:21;27.00;72.40
60287;DHT22;46141;52.382;5.270;2022-08-03T10:38:17;27.00;72.20
60287;DHT22;46141;52.382;5.270;2022-08-03T10:40:42;27.00;72.30
60287;DHT22;46141;52.382;5.270;2022-08-03T10:43:18;27.10;72.30
60287;DHT22;46141;52.382;5.270;2022-08-03T10:45:45;27.10;72.50
60287;DHT22;46141;52.382;5.270;2022-08-03T10:48:12;27.10;71.90
60287;DHT22;46141;52.382;5.270;2022-08-03T10:50:38;27.00;71.80
60287;DHT22;46141;52.382;5.270;2022-08-03T10:53:05;27.10;72.50
60287;DHT22;46141;52.382;5.270;2022-08-03T10:55:43;27.10;72.30
60287;DHT22;46141;52.382;5.270;2022-08-03T10:58:08;27.10;72.20
60287;DHT22;46141;52.382;5.270;2022-08-03T11:00:49;27.10;72.30
60287;DHT22;46141;52.382;5.270;2022-08-03T11:03:15;27.10;72.00
60287;DHT22;46141;52.382;5.270;2022-08-03T11:05:45;27.20;72.20
60287;DHT22;46141;52.382;5.270;2022-08-03T11:10:55;27.30;71.80
60287;DHT22;46141;52.382;5.270;2022-08-03T11:13:23;27.30;71.70
60287;DHT22;46141;52.382;5.270;2022-08-03T11:15:52;27.30;71.60
60287;DHT22;46141;52.382;5.270;2022-08-03T11:18:18;27.30;71.40
60287;DHT22;46141;52.382;5.270;2022-08-03T11:20:53;27.30;71.30
60287;DHT22;46141;52.382;5.270;2022-08-03T11:23:46;27.30;71.50
60287;DHT22;46141;52.382;5.270;2022-08-03T11:26:19;27.30;71.30
60287;DHT22;46141;52.382;5.270;2022-08-03T11:28:46;27.30;71.20
60287;DHT22;46141;52.382;5.270;2022-08-03T11:34:07;27.30;70.90
60287;DHT22;46141;52.382;5.270;2022-08-03T11:39:47;27.40;70.60
60287;DHT22;46141;52.382;5.270;2022-08-03T11:44:49;27.50;70.60
60287;DHT22;46141;52.382;5.270;2022-08-03T11:47:16;27.50;70.60
60287;DHT22;46141;52.382;5.270;2022-08-03T11:49:51;27.50;70.30
60287;DHT22;46141;52.382;5.270;2022-08-03T11:52:18;27.50;70.10
60287;DHT22;46141;52.382;5.270;2022-08-03T11:54:44;27.60;69.80
60287;DHT22;46141;52.382;5.270;2022-08-03T11:57:09;27.60;69.20
60287;DHT22;46141;52.382;5.270;2022-08-03T11:59:36;27.60;69.20
60287;DHT22;46141;52.382;5.270;2022-08-03T12:02:08;27.70;69.20
60287;DHT22;46141;52.382;5.270;2022-08-03T12:04:54;27.70;69.10
60287;DHT22;46141;52.382;5.270;2022-08-03T12:07:20;27.70;68.60
60287;DHT22;46141;52.382;5.270;2022-08-03T12:12:33;27.70;68.00
60287;DHT22;46141;52.382;5.270;2022-08-03T12:14:58;27.70;68.00
60287;DHT22;46141;52.382;5.270;2022-08-03T12:17:32;27.70;68.10
60287;DHT22;46141;52.382;5.270;2022-08-03T12:19:58;27.80;67.80
60287;DHT22;46141;52.382;5.270;2022-08-03T12:22:31;27.80;67.40
60287;DHT22;46141;52.382;5.270;2022-08-03T12:24:57;27.80;67.00
60287;DHT22;46141;52.382;5.270;2022-08-03T12:27:24;27.80;66.80
60287;DHT22;46141;52.382;5.270;2022-08-03T12:29:53;27.90;66.60
60287;DHT22;46141;52.382;5.270;2022-08-03T12:32:18;27.90;65.20
60287;DHT22;46141;52.382;5.270;2022-08-03T12:34:45;27.90;65.40
60287;DHT22;46141;52.382;5.270;2022-08-03T12:37:11;28.00;65.50
60287;DHT22;46141;52.382;5.270;2022-08-03T12:39:37;28.00;65.20
60287;DHT22;46141;52.382;5.270;2022-08-03T12:42:03;28.00;65.20
60287;DHT22;46141;52.382;5.270;2022-08-03T12:44:34;28.00;64.60
60287;DHT22;46141;52.382;5.270;2022-08-03T12:47:01;28.00;64.60
60287;DHT22;46141;52.382;5.270;2022-08-03T12:49:27;28.10;64.60
60287;DHT22;46141;52.382;5.270;2022-08-03T12:51:57;28.10;63.70
60287;DHT22;46141;52.382;5.270;2022-08-03T12:54:26;28.20;64.10
60287;DHT22;46141;52.382;5.270;2022-08-03T12:57:09;28.20;63.80
60287;DHT22;46141;52.382;5.270;2022-08-03T12:59:37;28.20;63.60
60287;DHT22;46141;52.382;5.270;2022-08-03T13:02:03;28.20;63.50
60287;DHT22;46141;52.382;5.270;2022-08-03T13:04:32;28.30;63.80
60287;DHT22;46141;52.382;5.270;2022-08-03T13:07:03;28.30;63.60
60287;DHT22;46141;52.382;5.270;2022-08-03T13:09:39;28.30;64.00
60287;DHT22;46141;52.382;5.270;2022-08-03T13:12:07;28.40;64.10
60287;DHT22;46141;52.382;5.270;2022-08-03T13:14:33;28.40;63.60
60287;DHT22;46141;52.382;5.270;2022-08-03T13:16:58;28.40;63.30
60287;DHT22;46141;52.382;5.270;2022-08-03T13:19:24;28.40;63.60
60287;DHT22;46141;52.382;5.270;2022-08-03T13:21:50;28.50;63.80
60287;DHT22;46141;52.382;5.270;2022-08-03T13:24:15;28.50;63.60
60287;DHT22;46141;52.382;5.270;2022-08-03T13:26:41;28.60;63.20
60287;DHT22;46141;52.382;5.270;2022-08-03T13:29:06;28.60;63.00
60287;DHT22;46141;52.382;5.270;2022-08-03T13:31:32;28.60;62.30
60287;DHT22;46141;52.382;5.270;2022-08-03T13:33:57;28.70;62.50
60287;DHT22;46141;52.382;5.270;2022-08-03T13:36:23;28.70;62.50
60287;DHT22;46141;52.382;5.270;2022-08-03T13:38:48;28.80;62.70
60287;DHT22;46141;52.382;5.270;2022-08-03T13:41:14;28.80;62.60
60287;DHT22;46141;52.382;5.270;2022-08-03T13:43:40;28.80;62.40
60287;DHT22;46141;52.382;5.270;2022-08-03T13:46:05;28.90;62.40
60287;DHT22;46141;52.382;5.270;2022-08-03T13:48:30;28.90;62.60
60287;DHT22;46141;52.382;5.270;2022-08-03T13:50:57;28.90;62.40
60287;DHT22;46141;52.382;5.270;2022-08-03T13:53:22;29.00;62.20
60287;DHT22;46141;52.382;5.270;2022-08-03T13:55:48;29.10;62.00
60287;DHT22;46141;52.382;5.270;2022-08-03T13:58:13;29.10;62.00
60287;DHT22;46141;52.382;5.270;2022-08-03T14:00:39;29.10;61.70
60287;DHT22;46141;52.382;5.270;2022-08-03T14:03:05;29.20;62.00
60287;DHT22;46141;52.382;5.270;2022-08-03T14:05:31;29.20;62.00
60287;DHT22;46141;52.382;5.270;2022-08-03T14:07:57;29.20;61.80
60287;DHT22;46141;52.382;5.270;2022-08-03T14:10:22;29.30;62.00
60287;DHT22;46141;52.382;5.270;2022-08-03T14:12:48;29.30;61.80
60287;DHT22;46141;52.382;5.270;2022-08-03T14:15:13;29.30;61.60
60287;DHT22;46141;52.382;5.270;2022-08-03T14:17:39;29.40;61.70
60287;DHT22;46141;52.382;5.270;2022-08-03T14:20:06;29.40;61.30
60287;DHT22;46141;52.382;5.270;2022-08-03T14:22:32;29.40;61.80
60287;DHT22;46141;52.382;5.270;2022-08-03T14:24:58;29.50;61.30
60287;DHT22;46141;52.382;5.270;2022-08-03T14:27:23;29.50;61.40
60287;DHT22;46141;52.382;5.270;2022-08-03T14:29:48;29.50;60.80
60287;DHT22;46141;52.382;5.270;2022-08-03T14:32:14;29.60;60.80
60287;DHT22;46141;52.382;5.270;2022-08-03T14:34:40;29.60;60.40
60287;DHT22;46141;52.382;5.270;2022-08-03T14:37:05;29.70;60.50
60287;DHT22;46141;52.382;5.270;2022-08-03T14:39:31;29.70;60.50
60287;DHT22;46141;52.382;5.270;2022-08-03T14:41:56;29.80;60.50
60287;DHT22;46141;52.382;5.270;2022-08-03T14:44:22;29.70;59.90
60287;DHT22;46141;52.382;5.270;2022-08-03T14:46:47;29.80;59.00
60287;DHT22;46141;52.382;5.270;2022-08-03T14:49:13;29.90;58.90
60287;DHT22;46141;52.382;5.270;2022-08-03T14:51:38;29.90;59.10
60287;DHT22;46141;52.382;5.270;2022-08-03T14:54:04;29.90;58.90
60287;DHT22;46141;52.382;5.270;2022-08-03T14:56:30;29.90;58.90
60287;DHT22;46141;52.382;5.270;2022-08-03T14:58:55;30.00;58.70
60287;DHT22;46141;52.382;5.270;2022-08-03T15:01:21;30.00;59.10
60287;DHT22;46141;52.382;5.270;2022-08-03T15:03:46;30.00;58.10
60287;DHT22;46141;52.382;5.270;2022-08-03T15:06:12;30.10;58.50
60287;DHT22;46141;52.382;5.270;2022-08-03T15:08:37;30.10;58.40
60287;DHT22;46141;52.382;5.270;2022-08-03T15:11:03;30.20;58.20
60287;DHT22;46141;52.382;5.270;2022-08-03T15:13:28;30.20;57.80
60287;DHT22;46141;52.382;5.270;2022-08-03T15:15:54;30.20;57.70
60287;DHT22;46141;52.382;5.270;2022-08-03T15:18:19;30.30;57.70
60287;DHT22;46141;52.382;5.270;2022-08-03T15:20:46;30.20;57.70
60287;DHT22;46141;52.382;5.270;2022-08-03T15:23:12;30.30;57.60
60287;DHT22;46141;52.382;5.270;2022-08-03T15:25:38;30.30;57.50
60287;DHT22;46141;52.382;5.270;2022-08-03T15:28:04;30.30;58.10
60287;DHT22;46141;52.382;5.270;2022-08-03T15:30:29;30.40;58.10
60287;DHT22;46141;52.382;5.270;2022-08-03T15:32:55;30.40;57.80
60287;DHT22;46141;52.382;5.270;2022-08-03T15:35:20;30.40;57.60
60287;DHT22;46141;52.382;5.270;2022-08-03T15:37:46;30.50;57.80
60287;DHT22;46141;52.382;5.270;2022-08-03T15:40:12;30.50;57.90
60287;DHT22;46141;52.382;5.270;2022-08-03T15:42:37;30.50;57.40
60287;DHT22;46141;52.382;5.270;2022-08-03T15:45:03;30.60;57.00
60287;DHT22;46141;52.382;5.270;2022-08-03T15:47:29;30.60;57.00
60287;DHT22;46141;52.382;5.270;2022-08-03T15:49:54;30.60;57.60
60287;DHT22;46141;52.382;5.270;2022-08-03T15:52:20;30.60;57.80
60287;DHT22;46141;52.382;5.270;2022-08-03T15:54:45;30.60;57.90
60287;DHT22;46141;52.382;5.270;2022-08-03T15:57:11;30.60;58.20
60287;DHT22;46141;52.382;5.270;2022-08-03T15:59:36;30.70;57.70
60287;DHT22;46141;52.382;5.270;2022-08-03T16:02:02;30.70;58.00